sensor_id;sensor_type;location;lat;lon;timestamp;P1;durP1;ratioP1;P2;durP2;ratioP2
64684;SDS011;51109;47.414;18.954;2023-12-14T00:01:21;28.67;;;17.60;;
64684;SDS011;51109;47.414;18.954;2023-12-14T00:03:47;28.30;;;18.58;;
64684;SDS011;51109;47.414;18.954;2023-12-14T00:06:14;29.13;;;18.23;;
64684;SDS011;51109;47.414;18.954;2023-12-14T00:08:40;36.53;;;20.38;;
64684;SDS011;51109;47.414;18.954;2023-12-14T00:11:06;36.92;;;19.33;;
64684;SDS011;51109;47.414;18.954;2023-12-14T00:13:34;40.88;;;21.50;;
64684;SDS011;51109;47.414;18.954;2023-12-14T00:16:00;36.75;;;20.13;;
64684;SDS011;51109;47.414;18.954;2023-12-14T00:18:27;36.78;;;21.30;;
64684;SDS011;51109;47.414;18.954;2023-12-14T00:20:53;41.15;;;22.17;;
64684;SDS011;51109;47.414;18.954;2023-12-14T00:23:22;42.58;;;22.05;;
64684;SDS011;51109;47.414;18.954;2023-12-14T00:25:49;43.90;;;23.00;;
64684;SDS011;51109;47.414;18.954;2023-12-14T00:28:15;48.78;;;24.55;;
64684;SDS011;51109;47.414;18.954;2023-12-14T00:30:41;43.72;;;22.15;;
64684;SDS011;51109;47.414;18.954;2023-12-14T00:33:07;47.05;;;23.92;;
64684;SDS011;51109;47.414;18.954;2023-12-14T00:35:33;48.70;;;21.92;;
64684;SDS011;51109;47.414;18.954;2023-12-14T00:37:59;57.28;;;23.67;;
64684;SDS011;51109;47.414;18.954;2023-12-14T00:40:25;53.88;;;23.10;;
64684;SDS011;51109;47.414;18.954;2023-12-14T00:42:51;47.72;;;23.20;;
64684;SDS011;51109;47.414;18.954;2023-12-14T00:45:17;57.95;;;23.30;;
64684;SDS011;51109;47.414;18.954;2023-12-14T00:47:43;57.42;;;25.67;;
64684;SDS011;51109;47.414;18.954;2023-12-14T00:50:08;56.35;;;22.95;;
64684;SDS011;51109;47.414;18.954;2023-12-14T00:52:34;55.30;;;24.83;;
64684;SDS011;51109;47.414;18.954;2023-12-14T00:55:00;46.00;;;18.73;;
64684;SDS011;51109;47.414;18.954;2023-12-14T00:57:26;46.88;;;22.35;;
64684;SDS011;51109;47.414;18.954;2023-12-14T00:59:52;52.33;;;23.88;;
64684;SDS011;51109;47.414;18.954;2023-12-14T01:02:18;53.58;;;24.98;;
64684;SDS011;51109;47.414;18.954;2023-12-14T01:04:44;50.97;;;24.27;;
64684;SDS011;51109;47.414;18.954;2023-12-14T01:07:10;57.35;;;25.52;;
64684;SDS011;51109;47.414;18.954;2023-12-14T01:09:36;63.28;;;28.08;;
64684;SDS011;51109;47.414;18.954;2023-12-14T01:12:02;50.53;;;23.80;;
64684;SDS011;51109;47.414;18.954;2023-12-14T01:14:28;52.13;;;23.85;;
64684;SDS011;51109;47.414;18.954;2023-12-14T01:16:54;56.60;;;25.38;;
64684;SDS011;51109;47.414;18.954;2023-12-14T01:19:20;52.08;;;24.35;;
64684;SDS011;51109;47.414;18.954;2023-12-14T01:21:46;60.00;;;26.27;;
64684;SDS011;51109;47.414;18.954;2023-12-14T01:24:12;59.50;;;26.13;;
64684;SDS011;51109;47.414;18.954;2023-12-14T01:26:38;62.40;;;25.13;;
64684;SDS011;51109;47.414;18.954;2023-12-14T01:29:03;64.25;;;27.20;;
64684;SDS011;51109;47.414;18.954;2023-12-14T01:31:29;51.67;;;22.95;;
64684;SDS011;51109;47.414;18.954;2023-12-14T01:33:55;64.30;;;26.17;;
64684;SDS011;51109;47.414;18.954;2023-12-14T01:36:21;61.03;;;25.10;;
64684;SDS011;51109;47.414;18.954;2023-12-14T01:38:48;58.40;;;24.02;;
64684;SDS011;51109;47.414;18.954;2023-12-14T01:41:15;64.90;;;25.95;;
64684;SDS011;51109;47.414;18.954;2023-12-14T01:43:41;56.17;;;24.20;;
64684;SDS011;51109;47.414;18.954;2023-12-14T01:46:17;60.70;;;23.75;;
64684;SDS011;51109;47.414;18.954;2023-12-14T01:48:43;63.67;;;24.40;;
64684;SDS011;51109;47.414;18.954;2023-12-14T01:51:09;50.08;;;22.27;;
64684;SDS011;51109;47.414;18.954;2023-12-14T01:53:35;60.22;;;23.90;;
64684;SDS011;51109;47.414;18.954;2023-12-14T01:56:00;53.88;;;22.75;;
64684;SDS011;51109;47.414;18.954;2023-12-14T01:58:26;48.70;;;21.02;;
64684;SDS011;51109;47.414;18.954;2023-12-14T02:00:55;63.45;;;24.88;;
64684;SDS011;51109;47.414;18.954;2023-12-14T02:03:45;55.25;;;22.75;;
64684;SDS011;51109;47.414;18.954;2023-12-14T02:06:11;51.58;;;21.42;;
64684;SDS011;51109;47.414;18.954;2023-12-14T02:08:37;60.40;;;23.38;;
64684;SDS011;51109;47.414;18.954;2023-12-14T02:11:03;56.75;;;24.00;;
64684;SDS011;51109;47.414;18.954;2023-12-14T02:13:29;57.65;;;23.38;;
64684;SDS011;51109;47.414;18.954;2023-12-14T02:15:55;51.78;;;21.90;;
64684;SDS011;51109;47.414;18.954;2023-12-14T02:18:21;53.95;;;23.00;;
64684;SDS011;51109;47.414;18.954;2023-12-14T02:20:46;56.67;;;23.38;;
64684;SDS011;51109;47.414;18.954;2023-12-14T02:23:12;56.33;;;22.98;;
64684;SDS011;51109;47.414;18.954;2023-12-14T02:25:38;63.67;;;25.13;;
64684;SDS011;51109;47.414;18.954;2023-12-14T02:28:04;66.57;;;23.23;;
64684;SDS011;51109;47.414;18.954;2023-12-14T02:30:30;61.20;;;23.13;;
64684;SDS011;51109;47.414;18.954;2023-12-14T02:32:56;62.25;;;23.50;;
64684;SDS011;51109;47.414;18.954;2023-12-14T02:35:22;67.53;;;25.67;;
64684;SDS011;51109;47.414;18.954;2023-12-14T02:37:48;56.83;;;23.70;;
64684;SDS011;51109;47.414;18.954;2023-12-14T02:40:14;56.72;;;22.63;;
64684;SDS011;51109;47.414;18.954;2023-12-14T02:42:40;59.47;;;24.17;;
64684;SDS011;51109;47.414;18.954;2023-12-14T02:45:07;54.03;;;24.15;;
64684;SDS011;51109;47.414;18.954;2023-12-14T02:47:34;61.38;;;22.33;;
64684;SDS011;51109;47.414;18.954;2023-12-14T02:50:00;63.60;;;26.83;;
64684;SDS011;51109;47.414;18.954;2023-12-14T02:52:26;56.83;;;23.88;;
64684;SDS011;51109;47.414;18.954;2023-12-14T02:54:52;55.15;;;23.48;;
64684;SDS011;51109;47.414;18.954;2023-12-14T02:57:18;62.72;;;24.35;;
64684;SDS011;51109;47.414;18.954;2023-12-14T02:59:44;58.42;;;25.92;;
64684;SDS011;51109;47.414;18.954;2023-12-14T03:02:10;50.25;;;20.88;;
64684;SDS011;51109;47.414;18.954;2023-12-14T03:04:39;54.53;;;21.40;;
64684;SDS011;51109;47.414;18.954;2023-12-14T03:07:05;59.58;;;22.48;;
64684;SDS011;51109;47.414;18.954;2023-12-14T03:09:31;62.45;;;24.70;;
64684;SDS011;51109;47.414;18.954;2023-12-14T03:11:58;62.08;;;25.30;;
64684;SDS011;51109;47.414;18.954;2023-12-14T03:14:31;63.65;;;26.75;;
64684;SDS011;51109;47.414;18.954;2023-12-14T03:16:58;60.67;;;24.17;;
64684;SDS011;51109;47.414;18.954;2023-12-14T03:19:24;65.50;;;26.08;;
64684;SDS011;51109;47.414;18.954;2023-12-14T03:21:50;63.83;;;26.25;;
64684;SDS011;51109;47.414;18.954;2023-12-14T03:24:16;69.35;;;27.15;;
64684;SDS011;51109;47.414;18.954;2023-12-14T03:26:42;70.35;;;28.13;;
64684;SDS011;51109;47.414;18.954;2023-12-14T03:29:08;66.63;;;26.40;;
64684;SDS011;51109;47.414;18.954;2023-12-14T03:31:34;67.07;;;28.65;;
64684;SDS011;51109;47.414;18.954;2023-12-14T03:34:00;70.43;;;27.02;;
64684;SDS011;51109;47.414;18.954;2023-12-14T03:36:26;68.25;;;26.35;;
64684;SDS011;51109;47.414;18.954;2023-12-14T03:38:53;63.30;;;27.30;;
64684;SDS011;51109;47.414;18.954;2023-12-14T03:41:19;63.50;;;28.00;;
64684;SDS011;51109;47.414;18.954;2023-12-14T03:43:45;58.88;;;26.27;;
64684;SDS011;51109;47.414;18.954;2023-12-14T03:46:11;51.85;;;19.90;;
64684;SDS011;51109;47.414;18.954;2023-12-14T03:48:36;49.15;;;22.48;;
64684;SDS011;51109;47.414;18.954;2023-12-14T03:51:03;63.63;;;26.60;;
64684;SDS011;51109;47.414;18.954;2023-12-14T03:53:29;58.10;;;24.38;;
64684;SDS011;51109;47.414;18.954;2023-12-14T03:55:57;63.80;;;24.55;;
64684;SDS011;51109;47.414;18.954;2023-12-14T03:58:23;59.33;;;25.38;;
64684;SDS011;51109;47.414;18.954;2023-12-14T04:00:49;62.75;;;25.13;;
64684;SDS011;51109;47.414;18.954;2023-12-14T04:03:15;60.42;;;23.55;;
64684;SDS011;51109;47.414;18.954;2023-12-14T04:05:41;66.05;;;25.63;;
64684;SDS011;51109;47.414;18.954;2023-12-14T04:08:08;68.30;;;28.05;;
64684;SDS011;51109;47.414;18.954;2023-12-14T04:10:35;74.15;;;28.48;;
64684;SDS011;51109;47.414;18.954;2023-12-14T04:13:01;77.30;;;28.85;;
64684;SDS011;51109;47.414;18.954;2023-12-14T04:15:27;67.60;;;25.75;;
64684;SDS011;51109;47.414;18.954;2023-12-14T04:17:53;58.55;;;22.38;;
64684;SDS011;51109;47.414;18.954;2023-12-14T04:20:19;71.10;;;28.70;;
64684;SDS011;51109;47.414;18.954;2023-12-14T04:22:44;81.47;;;27.80;;
64684;SDS011;51109;47.414;18.954;2023-12-14T04:25:10;76.43;;;30.50;;
64684;SDS011;51109;47.414;18.954;2023-12-14T04:27:36;78.72;;;29.58;;
64684;SDS011;51109;47.414;18.954;2023-12-14T04:30:03;89.70;;;31.25;;
64684;SDS011;51109;47.414;18.954;2023-12-14T04:32:29;74.00;;;28.02;;
64684;SDS011;51109;47.414;18.954;2023-12-14T04:34:55;81.10;;;31.27;;
64684;SDS011;51109;47.414;18.954;2023-12-14T04:37:21;80.28;;;30.70;;
64684;SDS011;51109;47.414;18.954;2023-12-14T04:39:47;70.35;;;26.38;;
64684;SDS011;51109;47.414;18.954;2023-12-14T04:42:13;78.72;;;32.58;;
64684;SDS011;51109;47.414;18.954;2023-12-14T04:44:39;79.88;;;31.92;;
64684;SDS011;51109;47.414;18.954;2023-12-14T04:47:04;86.35;;;30.20;;
64684;SDS011;51109;47.414;18.954;2023-12-14T04:49:30;87.22;;;31.90;;
64684;SDS011;51109;47.414;18.954;2023-12-14T04:51:56;81.45;;;30.02;;
64684;SDS011;51109;47.414;18.954;2023-12-14T04:54:22;85.93;;;30.63;;
64684;SDS011;51109;47.414;18.954;2023-12-14T04:56:48;82.57;;;32.17;;
64684;SDS011;51109;47.414;18.954;2023-12-14T04:59:14;86.45;;;31.85;;
64684;SDS011;51109;47.414;18.954;2023-12-14T05:01:40;80.85;;;30.75;;
64684;SDS011;51109;47.414;18.954;2023-12-14T05:04:06;81.43;;;30.10;;
64684;SDS011;51109;47.414;18.954;2023-12-14T05:06:31;91.93;;;32.95;;
64684;SDS011;51109;47.414;18.954;2023-12-14T05:08:58;85.20;;;29.02;;
64684;SDS011;51109;47.414;18.954;2023-12-14T05:11:26;90.07;;;32.55;;
64684;SDS011;51109;47.414;18.954;2023-12-14T05:13:52;89.10;;;32.25;;
64684;SDS011;51109;47.414;18.954;2023-12-14T05:16:18;58.35;;;22.40;;
64684;SDS011;51109;47.414;18.954;2023-12-14T05:18:44;93.03;;;31.88;;
64684;SDS011;51109;47.414;18.954;2023-12-14T05:21:15;87.28;;;27.10;;
64684;SDS011;51109;47.414;18.954;2023-12-14T05:23:42;77.07;;;26.45;;
64684;SDS011;51109;47.414;18.954;2023-12-14T05:26:08;82.10;;;28.67;;
64684;SDS011;51109;47.414;18.954;2023-12-14T05:28:34;86.70;;;28.92;;
64684;SDS011;51109;47.414;18.954;2023-12-14T05:31:00;83.78;;;29.45;;
64684;SDS011;51109;47.414;18.954;2023-12-14T05:33:28;91.53;;;31.17;;
64684;SDS011;51109;47.414;18.954;2023-12-14T05:35:54;73.55;;;26.77;;
64684;SDS011;51109;47.414;18.954;2023-12-14T05:38:20;94.43;;;30.73;;
64684;SDS011;51109;47.414;18.954;2023-12-14T05:40:45;92.03;;;32.03;;
64684;SDS011;51109;47.414;18.954;2023-12-14T05:43:11;94.13;;;30.83;;
64684;SDS011;51109;47.414;18.954;2023-12-14T05:45:37;92.45;;;33.88;;
64684;SDS011;51109;47.414;18.954;2023-12-14T05:48:03;95.20;;;31.40;;
64684;SDS011;51109;47.414;18.954;2023-12-14T05:50:30;93.18;;;31.63;;
64684;SDS011;51109;47.414;18.954;2023-12-14T05:52:56;90.35;;;30.98;;
64684;SDS011;51109;47.414;18.954;2023-12-14T05:55:22;95.00;;;31.75;;
64684;SDS011;51109;47.414;18.954;2023-12-14T05:57:48;89.93;;;29.77;;
64684;SDS011;51109;47.414;18.954;2023-12-14T06:00:15;98.05;;;31.95;;
64684;SDS011;51109;47.414;18.954;2023-12-14T06:02:41;102.53;;;33.15;;
64684;SDS011;51109;47.414;18.954;2023-12-14T06:05:07;93.60;;;32.42;;
64684;SDS011;51109;47.414;18.954;2023-12-14T06:07:33;94.28;;;34.20;;
64684;SDS011;51109;47.414;18.954;2023-12-14T06:09:59;91.72;;;32.58;;
64684;SDS011;51109;47.414;18.954;2023-12-14T06:12:26;95.70;;;33.03;;
64684;SDS011;51109;47.414;18.954;2023-12-14T06:14:52;88.55;;;33.42;;
64684;SDS011;51109;47.414;18.954;2023-12-14T06:17:18;89.90;;;32.35;;
64684;SDS011;51109;47.414;18.954;2023-12-14T06:19:44;90.53;;;34.97;;
64684;SDS011;51109;47.414;18.954;2023-12-14T06:22:10;95.22;;;33.33;;
64684;SDS011;51109;47.414;18.954;2023-12-14T06:24:36;84.05;;;31.90;;
64684;SDS011;51109;47.414;18.954;2023-12-14T06:27:02;89.95;;;35.55;;
64684;SDS011;51109;47.414;18.954;2023-12-14T06:29:29;89.63;;;34.42;;
64684;SDS011;51109;47.414;18.954;2023-12-14T06:31:54;85.35;;;35.80;;
64684;SDS011;51109;47.414;18.954;2023-12-14T06:34:20;88.20;;;35.42;;
64684;SDS011;51109;47.414;18.954;2023-12-14T06:36:46;93.13;;;36.03;;
64684;SDS011;51109;47.414;18.954;2023-12-14T06:39:12;87.72;;;35.08;;
64684;SDS011;51109;47.414;18.954;2023-12-14T06:41:38;90.55;;;33.60;;
64684;SDS011;51109;47.414;18.954;2023-12-14T06:44:05;88.10;;;35.58;;
64684;SDS011;51109;47.414;18.954;2023-12-14T06:46:31;84.85;;;32.58;;
64684;SDS011;51109;47.414;18.954;2023-12-14T06:48:57;81.15;;;35.50;;
64684;SDS011;51109;47.414;18.954;2023-12-14T06:51:23;83.60;;;35.45;;
64684;SDS011;51109;47.414;18.954;2023-12-14T06:53:49;82.57;;;36.63;;
64684;SDS011;51109;47.414;18.954;2023-12-14T06:56:15;85.47;;;36.22;;
64684;SDS011;51109;47.414;18.954;2023-12-14T06:58:41;81.50;;;33.03;;
64684;SDS011;51109;47.414;18.954;2023-12-14T07:01:12;85.00;;;34.22;;
64684;SDS011;51109;47.414;18.954;2023-12-14T07:03:40;78.28;;;36.33;;
64684;SDS011;51109;47.414;18.954;2023-12-14T07:06:07;77.78;;;37.08;;
64684;SDS011;51109;47.414;18.954;2023-12-14T07:08:37;81.72;;;36.67;;
64684;SDS011;51109;47.414;18.954;2023-12-14T07:11:03;81.45;;;33.90;;
64684;SDS011;51109;47.414;18.954;2023-12-14T07:13:29;80.15;;;35.78;;
64684;SDS011;51109;47.414;18.954;2023-12-14T07:15:55;82.88;;;37.63;;
64684;SDS011;51109;47.414;18.954;2023-12-14T07:18:21;84.32;;;36.63;;
64684;SDS011;51109;47.414;18.954;2023-12-14T07:20:47;87.10;;;38.47;;
64684;SDS011;51109;47.414;18.954;2023-12-14T07:23:13;81.75;;;35.67;;
64684;SDS011;51109;47.414;18.954;2023-12-14T07:25:39;78.82;;;36.63;;
64684;SDS011;51109;47.414;18.954;2023-12-14T07:28:05;82.18;;;36.25;;
64684;SDS011;51109;47.414;18.954;2023-12-14T07:30:30;76.95;;;34.38;;
64684;SDS011;51109;47.414;18.954;2023-12-14T07:32:57;72.47;;;31.25;;
64684;SDS011;51109;47.414;18.954;2023-12-14T07:35:22;73.70;;;35.63;;
64684;SDS011;51109;47.414;18.954;2023-12-14T07:37:51;74.47;;;33.75;;
64684;SDS011;51109;47.414;18.954;2023-12-14T07:40:17;76.18;;;34.47;;
64684;SDS011;51109;47.414;18.954;2023-12-14T07:42:43;72.57;;;32.05;;
64684;SDS011;51109;47.414;18.954;2023-12-14T07:45:09;68.18;;;31.80;;
64684;SDS011;51109;47.414;18.954;2023-12-14T07:47:35;77.63;;;35.35;;
64684;SDS011;51109;47.414;18.954;2023-12-14T07:50:02;72.93;;;30.13;;
64684;SDS011;51109;47.414;18.954;2023-12-14T07:52:29;72.88;;;33.15;;
64684;SDS011;51109;47.414;18.954;2023-12-14T07:54:55;75.30;;;32.88;;
64684;SDS011;51109;47.414;18.954;2023-12-14T07:57:20;77.97;;;36.22;;
64684;SDS011;51109;47.414;18.954;2023-12-14T07:59:46;82.05;;;33.40;;
64684;SDS011;51109;47.414;18.954;2023-12-14T08:02:12;73.15;;;33.90;;
64684;SDS011;51109;47.414;18.954;2023-12-14T08:04:38;75.10;;;33.13;;
64684;SDS011;51109;47.414;18.954;2023-12-14T08:07:04;72.45;;;31.85;;
64684;SDS011;51109;47.414;18.954;2023-12-14T08:09:30;76.03;;;35.55;;
64684;SDS011;51109;47.414;18.954;2023-12-14T08:11:57;62.78;;;29.58;;
64684;SDS011;51109;47.414;18.954;2023-12-14T08:14:23;66.53;;;31.50;;
64684;SDS011;51109;47.414;18.954;2023-12-14T08:16:49;69.47;;;31.13;;
64684;SDS011;51109;47.414;18.954;2023-12-14T08:19:15;68.13;;;34.05;;
64684;SDS011;51109;47.414;18.954;2023-12-14T08:21:41;71.60;;;35.13;;
64684;SDS011;51109;47.414;18.954;2023-12-14T08:24:07;69.28;;;32.67;;
64684;SDS011;51109;47.414;18.954;2023-12-14T08:26:32;74.90;;;34.97;;
64684;SDS011;51109;47.414;18.954;2023-12-14T08:28:58;73.10;;;33.85;;
64684;SDS011;51109;47.414;18.954;2023-12-14T08:31:24;63.55;;;30.60;;
64684;SDS011;51109;47.414;18.954;2023-12-14T08:33:51;64.97;;;33.10;;
64684;SDS011;51109;47.414;18.954;2023-12-14T08:36:17;63.90;;;30.58;;
64684;SDS011;51109;47.414;18.954;2023-12-14T08:38:43;66.82;;;34.15;;
64684;SDS011;51109;47.414;18.954;2023-12-14T08:41:15;73.95;;;33.13;;
64684;SDS011;51109;47.414;18.954;2023-12-14T08:43:41;65.00;;;31.83;;
64684;SDS011;51109;47.414;18.954;2023-12-14T08:46:07;66.30;;;30.70;;
64684;SDS011;51109;47.414;18.954;2023-12-14T08:48:33;63.17;;;31.58;;
64684;SDS011;51109;47.414;18.954;2023-12-14T08:51:01;61.17;;;31.50;;
64684;SDS011;51109;47.414;18.954;2023-12-14T08:53:27;65.47;;;30.65;;
64684;SDS011;51109;47.414;18.954;2023-12-14T08:55:55;67.00;;;31.77;;
64684;SDS011;51109;47.414;18.954;2023-12-14T08:58:21;63.55;;;31.13;;
64684;SDS011;51109;47.414;18.954;2023-12-14T09:00:47;69.95;;;34.35;;
64684;SDS011;51109;47.414;18.954;2023-12-14T09:03:20;68.85;;;33.75;;
64684;SDS011;51109;47.414;18.954;2023-12-14T09:05:46;58.92;;;30.58;;
64684;SDS011;51109;47.414;18.954;2023-12-14T09:08:12;57.03;;;30.73;;
64684;SDS011;51109;47.414;18.954;2023-12-14T09:10:38;60.88;;;31.05;;
64684;SDS011;51109;47.414;18.954;2023-12-14T09:13:04;58.17;;;30.70;;
64684;SDS011;51109;47.414;18.954;2023-12-14T09:15:31;52.10;;;28.45;;
64684;SDS011;51109;47.414;18.954;2023-12-14T09:17:57;54.42;;;27.88;;
64684;SDS011;51109;47.414;18.954;2023-12-14T09:20:23;58.20;;;29.50;;
64684;SDS011;51109;47.414;18.954;2023-12-14T09:22:49;47.45;;;28.25;;
64684;SDS011;51109;47.414;18.954;2023-12-14T09:25:15;47.10;;;24.33;;
64684;SDS011;51109;47.414;18.954;2023-12-14T09:27:41;49.55;;;26.48;;
64684;SDS011;51109;47.414;18.954;2023-12-14T09:30:08;44.90;;;26.67;;
64684;SDS011;51109;47.414;18.954;2023-12-14T09:32:34;50.35;;;27.10;;
64684;SDS011;51109;47.414;18.954;2023-12-14T09:35:00;53.40;;;29.08;;
64684;SDS011;51109;47.414;18.954;2023-12-14T09:37:26;44.22;;;26.73;;
64684;SDS011;51109;47.414;18.954;2023-12-14T09:39:52;47.65;;;25.77;;
64684;SDS011;51109;47.414;18.954;2023-12-14T09:42:19;47.10;;;27.15;;
64684;SDS011;51109;47.414;18.954;2023-12-14T09:44:46;51.42;;;27.73;;
64684;SDS011;51109;47.414;18.954;2023-12-14T09:47:13;47.85;;;25.75;;
64684;SDS011;51109;47.414;18.954;2023-12-14T09:49:39;42.80;;;25.70;;
64684;SDS011;51109;47.414;18.954;2023-12-14T09:52:08;45.42;;;26.10;;
64684;SDS011;51109;47.414;18.954;2023-12-14T09:54:35;41.35;;;22.17;;
64684;SDS011;51109;47.414;18.954;2023-12-14T09:57:01;35.67;;;18.08;;
64684;SDS011;51109;47.414;18.954;2023-12-14T09:59:27;41.83;;;23.67;;
64684;SDS011;51109;47.414;18.954;2023-12-14T10:01:52;45.10;;;26.58;;
64684;SDS011;51109;47.414;18.954;2023-12-14T10:04:33;46.10;;;25.67;;
64684;SDS011;51109;47.414;18.954;2023-12-14T10:07:00;37.63;;;18.05;;
64684;SDS011;51109;47.414;18.954;2023-12-14T10:09:32;39.80;;;22.75;;
64684;SDS011;51109;47.414;18.954;2023-12-14T10:12:05;40.17;;;23.90;;
64684;SDS011;51109;47.414;18.954;2023-12-14T10:14:33;33.05;;;19.58;;
64684;SDS011;51109;47.414;18.954;2023-12-14T10:17:13;40.75;;;23.35;;
64684;SDS011;51109;47.414;18.954;2023-12-14T10:19:43;41.58;;;25.00;;
64684;SDS011;51109;47.414;18.954;2023-12-14T10:22:11;34.90;;;19.40;;
64684;SDS011;51109;47.414;18.954;2023-12-14T10:24:44;31.00;;;18.90;;
64684;SDS011;51109;47.414;18.954;2023-12-14T10:27:13;39.42;;;21.40;;
64684;SDS011;51109;47.414;18.954;2023-12-14T10:29:40;34.70;;;21.17;;
64684;SDS011;51109;47.414;18.954;2023-12-14T10:32:06;39.13;;;22.42;;
64684;SDS011;51109;47.414;18.954;2023-12-14T10:34:34;37.42;;;20.30;;
64684;SDS011;51109;47.414;18.954;2023-12-14T10:37:05;39.90;;;20.73;;
64684;SDS011;51109;47.414;18.954;2023-12-14T10:39:36;42.75;;;23.73;;
64684;SDS011;51109;47.414;18.954;2023-12-14T10:42:05;33.08;;;20.08;;
64684;SDS011;51109;47.414;18.954;2023-12-14T10:44:35;42.05;;;24.25;;
64684;SDS011;51109;47.414;18.954;2023-12-14T10:47:02;39.85;;;23.92;;
64684;SDS011;51109;47.414;18.954;2023-12-14T10:49:29;42.72;;;25.02;;
64684;SDS011;51109;47.414;18.954;2023-12-14T10:51:56;35.15;;;20.00;;
64684;SDS011;51109;47.414;18.954;2023-12-14T10:54:24;44.55;;;24.15;;
64684;SDS011;51109;47.414;18.954;2023-12-14T10:56:55;39.35;;;22.02;;
64684;SDS011;51109;47.414;18.954;2023-12-14T10:59:21;40.05;;;22.40;;
64684;SDS011;51109;47.414;18.954;2023-12-14T11:01:52;44.15;;;24.45;;
64684;SDS011;51109;47.414;18.954;2023-12-14T11:04:20;41.88;;;22.30;;
64684;SDS011;51109;47.414;18.954;2023-12-14T11:06:47;35.90;;;22.45;;
64684;SDS011;51109;47.414;18.954;2023-12-14T11:09:14;35.83;;;21.20;;
64684;SDS011;51109;47.414;18.954;2023-12-14T11:14:25;38.80;;;23.08;;
64684;SDS011;51109;47.414;18.954;2023-12-14T11:17:03;42.85;;;22.75;;
64684;SDS011;51109;47.414;18.954;2023-12-14T11:19:31;34.65;;;19.90;;
64684;SDS011;51109;47.414;18.954;2023-12-14T11:24:33;40.13;;;21.63;;
64684;SDS011;51109;47.414;18.954;2023-12-14T11:27:04;37.92;;;23.05;;
64684;SDS011;51109;47.414;18.954;2023-12-14T11:29:31;32.72;;;17.52;;
64684;SDS011;51109;47.414;18.954;2023-12-14T11:31:57;31.35;;;19.05;;
64684;SDS011;51109;47.414;18.954;2023-12-14T11:34:24;29.83;;;15.90;;
64684;SDS011;51109;47.414;18.954;2023-12-14T11:36:50;24.02;;;15.45;;
64684;SDS011;51109;47.414;18.954;2023-12-14T11:39:16;34.85;;;18.70;;
64684;SDS011;51109;47.414;18.954;2023-12-14T11:41:42;33.30;;;18.10;;
64684;SDS011;51109;47.414;18.954;2023-12-14T11:44:07;35.03;;;19.85;;
64684;SDS011;51109;47.414;18.954;2023-12-14T11:46:33;29.98;;;17.27;;
64684;SDS011;51109;47.414;18.954;2023-12-14T11:48:59;32.22;;;17.13;;
64684;SDS011;51109;47.414;18.954;2023-12-14T11:51:28;30.67;;;17.77;;
64684;SDS011;51109;47.414;18.954;2023-12-14T11:53:56;29.63;;;17.85;;
64684;SDS011;51109;47.414;18.954;2023-12-14T11:56:26;27.38;;;17.27;;
64684;SDS011;51109;47.414;18.954;2023-12-14T11:58:52;28.60;;;16.42;;
64684;SDS011;51109;47.414;18.954;2023-12-14T12:01:20;28.60;;;18.00;;
64684;SDS011;51109;47.414;18.954;2023-12-14T12:03:46;29.58;;;17.08;;
64684;SDS011;51109;47.414;18.954;2023-12-14T12:06:22;27.88;;;18.02;;
64684;SDS011;51109;47.414;18.954;2023-12-14T12:08:50;26.05;;;15.32;;
64684;SDS011;51109;47.414;18.954;2023-12-14T12:11:20;26.33;;;16.92;;
64684;SDS011;51109;47.414;18.954;2023-12-14T12:13:51;23.98;;;16.10;;
64684;SDS011;51109;47.414;18.954;2023-12-14T12:16:20;25.08;;;15.38;;
64684;SDS011;51109;47.414;18.954;2023-12-14T12:18:47;27.42;;;17.08;;
64684;SDS011;51109;47.414;18.954;2023-12-14T12:21:13;26.42;;;16.45;;
64684;SDS011;51109;47.414;18.954;2023-12-14T12:23:39;30.35;;;18.33;;
64684;SDS011;51109;47.414;18.954;2023-12-14T12:26:07;30.00;;;17.95;;
64684;SDS011;51109;47.414;18.954;2023-12-14T12:28:33;27.20;;;16.20;;
64684;SDS011;51109;47.414;18.954;2023-12-14T12:30:59;23.70;;;13.20;;
64684;SDS011;51109;47.414;18.954;2023-12-14T12:33:25;26.90;;;17.40;;
64684;SDS011;51109;47.414;18.954;2023-12-14T12:35:52;24.77;;;16.60;;
64684;SDS011;51109;47.414;18.954;2023-12-14T12:38:18;23.13;;;12.63;;
64684;SDS011;51109;47.414;18.954;2023-12-14T12:40:44;29.40;;;18.58;;
64684;SDS011;51109;47.414;18.954;2023-12-14T12:43:10;28.92;;;18.17;;
64684;SDS011;51109;47.414;18.954;2023-12-14T12:45:37;30.08;;;18.20;;
64684;SDS011;51109;47.414;18.954;2023-12-14T12:48:03;23.02;;;16.15;;
64684;SDS011;51109;47.414;18.954;2023-12-14T12:50:32;27.30;;;17.27;;
64684;SDS011;51109;47.414;18.954;2023-12-14T12:52:58;24.20;;;16.15;;
64684;SDS011;51109;47.414;18.954;2023-12-14T12:55:24;25.40;;;15.40;;
64684;SDS011;51109;47.414;18.954;2023-12-14T12:57:50;29.02;;;16.90;;
64684;SDS011;51109;47.414;18.954;2023-12-14T13:00:16;28.40;;;17.67;;
64684;SDS011;51109;47.414;18.954;2023-12-14T13:02:43;26.63;;;17.50;;
64684;SDS011;51109;47.414;18.954;2023-12-14T13:05:10;30.08;;;18.02;;
64684;SDS011;51109;47.414;18.954;2023-12-14T13:07:36;27.92;;;18.63;;
64684;SDS011;51109;47.414;18.954;2023-12-14T13:10:03;30.48;;;18.83;;
64684;SDS011;51109;47.414;18.954;2023-12-14T13:12:34;32.92;;;18.38;;
64684;SDS011;51109;47.414;18.954;2023-12-14T13:15:00;29.30;;;17.42;;
64684;SDS011;51109;47.414;18.954;2023-12-14T13:17:26;29.73;;;18.65;;
64684;SDS011;51109;47.414;18.954;2023-12-14T13:19:52;30.38;;;18.67;;
64684;SDS011;51109;47.414;18.954;2023-12-14T13:22:18;27.98;;;18.75;;
64684;SDS011;51109;47.414;18.954;2023-12-14T13:24:44;31.33;;;19.63;;
64684;SDS011;51109;47.414;18.954;2023-12-14T13:27:11;29.73;;;18.60;;
64684;SDS011;51109;47.414;18.954;2023-12-14T13:29:37;27.00;;;15.68;;
64684;SDS011;51109;47.414;18.954;2023-12-14T13:32:02;29.95;;;17.95;;
64684;SDS011;51109;47.414;18.954;2023-12-14T13:34:29;28.20;;;17.35;;
64684;SDS011;51109;47.414;18.954;2023-12-14T13:36:55;28.27;;;17.70;;
64684;SDS011;51109;47.414;18.954;2023-12-14T13:39:21;30.08;;;17.48;;
64684;SDS011;51109;47.414;18.954;2023-12-14T13:41:48;28.95;;;17.45;;
64684;SDS011;51109;47.414;18.954;2023-12-14T13:44:14;27.33;;;17.10;;
64684;SDS011;51109;47.414;18.954;2023-12-14T13:46:40;25.95;;;16.15;;
64684;SDS011;51109;47.414;18.954;2023-12-14T13:49:07;27.58;;;17.50;;
64684;SDS011;51109;47.414;18.954;2023-12-14T13:51:35;27.75;;;16.17;;
64684;SDS011;51109;47.414;18.954;2023-12-14T13:54:01;28.40;;;17.75;;
64684;SDS011;51109;47.414;18.954;2023-12-14T13:56:27;28.48;;;17.35;;
64684;SDS011;51109;47.414;18.954;2023-12-14T13:58:53;24.50;;;15.23;;
64684;SDS011;51109;47.414;18.954;2023-12-14T14:01:19;27.77;;;17.00;;
64684;SDS011;51109;47.414;18.954;2023-12-14T14:03:45;26.27;;;16.45;;
64684;SDS011;51109;47.414;18.954;2023-12-14T14:06:12;27.17;;;16.73;;
64684;SDS011;51109;47.414;18.954;2023-12-14T14:08:38;24.88;;;16.48;;
64684;SDS011;51109;47.414;18.954;2023-12-14T14:11:04;31.42;;;17.50;;